Terminal Aerodrome Forecast
Issued by NWS

Home | Current Version | Previous Version | Text Only | Print | Product List | Glossary Off
Versions: 1 2 3 4 5 6 7 8 9 10 11 12 13 14

000
FTUS43 KICT 022320
TAFSLN
TAF
KSLN 022320Z 0300/0324 17017G24KT P6SM SKC
     FM030100 16013KT P6SM SKC
     FM031400 18016G23KT P6SM BKN120
     FM031900 18021G31KT P6SM FEW120=

USA.gov is the U.S. government's official web portal to all federal, state and local government web resources and services.